createdAt,value
2022-10-05T00:01:48.252Z,14.70
2022-10-05T00:04:20.343Z,14.60
2022-10-05T00:06:58.144Z,14.60
2022-10-05T00:09:24.721Z,14.60
2022-10-05T00:11:51.592Z,14.70
2022-10-05T00:14:30.674Z,14.70
2022-10-05T00:16:57.817Z,14.60
2022-10-05T00:19:32.185Z,14.60
2022-10-05T00:22:01.584Z,14.60
2022-10-05T00:24:29.645Z,14.60
2022-10-05T00:26:58.249Z,14.60
2022-10-05T00:29:25.276Z,14.60
2022-10-05T00:31:51.899Z,14.60
2022-10-05T00:34:18.916Z,14.60
2022-10-05T00:36:45.869Z,14.60
2022-10-05T00:39:12.662Z,14.60
2022-10-05T00:41:41.972Z,14.60
2022-10-05T00:44:24.376Z,14.60
2022-10-05T00:47:11.492Z,14.70
2022-10-05T00:50:17.979Z,14.70
2022-10-05T00:52:57.929Z,14.80
2022-10-05T00:55:36.431Z,14.80
2022-10-05T00:58:11.783Z,14.80
2022-10-05T01:01:02.180Z,14.70
2022-10-05T01:03:40.879Z,14.70
2022-10-05T01:06:33.455Z,14.60
2022-10-05T01:09:37.819Z,14.60
2022-10-05T01:12:04.434Z,14.70
2022-10-05T01:14:41.101Z,14.60
2022-10-05T01:17:30.659Z,14.60
2022-10-05T01:20:23.612Z,14.70
2022-10-05T01:23:05.132Z,14.60
2022-10-05T01:26:07.573Z,14.70
2022-10-05T01:28:46.765Z,14.60
2022-10-05T01:31:33.056Z,14.70
2022-10-05T01:34:24.430Z,14.60
2022-10-05T01:37:02.838Z,14.70
2022-10-05T01:39:43.244Z,14.70
2022-10-05T01:42:12.801Z,14.60
2022-10-05T01:44:54.506Z,14.60
2022-10-05T01:47:30.959Z,14.60
2022-10-05T01:50:07.468Z,14.60
2022-10-05T01:52:55.185Z,14.50
2022-10-05T01:55:24.440Z,14.40
2022-10-05T01:58:07.399Z,14.30
2022-10-05T02:00:43.347Z,14.40
2022-10-05T02:03:19.297Z,14.30
2022-10-05T02:05:59.949Z,14.30
2022-10-05T02:08:48.512Z,14.30
2022-10-05T02:11:15.470Z,14.40
2022-10-05T02:13:48.780Z,14.40
2022-10-05T02:16:32.577Z,14.50
2022-10-05T02:19:04.949Z,14.40
2022-10-05T02:21:34.563Z,14.50
2022-10-05T02:24:06.865Z,14.50
2022-10-05T02:26:36.571Z,14.50
2022-10-05T02:29:08.476Z,14.30
2022-10-05T02:31:40.600Z,14.40
2022-10-05T02:34:25.260Z,14.40
2022-10-05T02:37:21.894Z,14.50
2022-10-05T02:40:26.089Z,14.50
2022-10-05T02:43:11.477Z,14.40
2022-10-05T02:46:05.169Z,14.40
2022-10-05T02:49:05.329Z,14.40
2022-10-05T02:51:48.700Z,14.30
2022-10-05T02:54:44.872Z,14.30
2022-10-05T02:57:30.323Z,14.20
2022-10-05T03:00:18.679Z,14.30
2022-10-05T03:03:00.247Z,14.40
2022-10-05T03:05:46.275Z,14.40
2022-10-05T03:08:12.759Z,14.30
2022-10-05T03:11:08.073Z,14.30
2022-10-05T03:13:48.685Z,14.40
2022-10-05T03:16:15.291Z,14.40
2022-10-05T03:19:19.627Z,14.40
2022-10-05T03:22:25.242Z,14.40
2022-10-05T03:25:22.386Z,14.30
2022-10-05T03:28:16.655Z,14.30
2022-10-05T03:31:06.076Z,14.20
2022-10-05T03:33:38.587Z,14.20
2022-10-05T03:36:13.608Z,14.20
2022-10-05T03:38:56.681Z,14.20
2022-10-05T03:41:43.976Z,14.20
2022-10-05T03:44:34.444Z,14.20
2022-10-05T03:47:32.480Z,14.20
2022-10-05T03:50:20.759Z,14.20
2022-10-05T03:52:56.083Z,14.20
2022-10-05T03:55:43.789Z,14.30
2022-10-05T03:58:17.011Z,14.30
2022-10-05T04:00:48.081Z,14.20
2022-10-05T04:03:44.093Z,14.20
2022-10-05T04:06:22.220Z,14.20
2022-10-05T04:08:57.452Z,14.20
2022-10-05T04:11:34.166Z,14.30
2022-10-05T04:14:34.096Z,14.30
2022-10-05T04:17:09.781Z,14.40
2022-10-05T04:19:44.039Z,14.40
2022-10-05T04:22:37.333Z,14.20
2022-10-05T04:25:28.504Z,14.20
2022-10-05T04:28:18.732Z,14.30
2022-10-05T04:30:48.099Z,14.30
2022-10-05T04:33:15.938Z,14.30
2022-10-05T04:36:07.636Z,14.20
2022-10-05T04:38:47.788Z,14.30
2022-10-05T04:41:52.707Z,14.30
2022-10-05T04:44:37.852Z,14.30
2022-10-05T04:47:13.796Z,14.20
2022-10-05T04:49:57.900Z,14.20
2022-10-05T04:52:32.688Z,14.30
2022-10-05T04:55:04.427Z,14.20
2022-10-05T04:57:49.750Z,14.20
2022-10-05T05:00:23.443Z,14.20
2022-10-05T05:03:15.536Z,14.20
2022-10-05T05:06:16.294Z,14.20
2022-10-05T05:09:42.324Z,14.20
2022-10-05T05:12:59.417Z,14.20
2022-10-05T05:15:41.385Z,14.10
2022-10-05T05:18:26.886Z,14.20
2022-10-05T05:21:32.887Z,14.10
2022-10-05T05:24:39.824Z,14.10
2022-10-05T05:27:28.112Z,14.20
2022-10-05T05:30:21.209Z,14.20
2022-10-05T05:33:19.116Z,14.10
2022-10-05T05:36:00.360Z,14.10
2022-10-05T05:38:41.716Z,14.00
2022-10-05T05:41:18.229Z,14.10
2022-10-05T05:44:13.564Z,14.10
2022-10-05T05:47:21.968Z,14.10
2022-10-05T05:50:19.481Z,14.10
2022-10-05T05:52:51.453Z,14.10
2022-10-05T05:55:30.122Z,14.20
2022-10-05T05:58:11.352Z,14.20
2022-10-05T06:00:44.095Z,14.20
2022-10-05T06:03:46.896Z,14.20
2022-10-05T06:06:17.058Z,14.10
2022-10-05T06:08:48.166Z,14.10
2022-10-05T06:11:22.976Z,14.10
2022-10-05T06:13:50.213Z,14.10
2022-10-05T06:16:29.395Z,14.10
2022-10-05T06:19:02.408Z,14.10
2022-10-05T06:21:44.462Z,14.00
2022-10-05T06:24:25.876Z,14.10
2022-10-05T06:27:04.336Z,14.10
2022-10-05T06:29:45.469Z,14.20
2022-10-05T06:32:28.996Z,14.20
2022-10-05T06:35:19.382Z,14.20
2022-10-05T06:37:58.187Z,14.20
2022-10-05T06:40:35.382Z,14.20
2022-10-05T06:43:34.791Z,14.30
2022-10-05T06:46:04.337Z,14.30
2022-10-05T06:48:47.723Z,14.30
2022-10-05T06:51:38.803Z,14.30
2022-10-05T06:54:34.726Z,14.30
2022-10-05T06:57:10.697Z,14.30
2022-10-05T06:59:47.372Z,14.30
2022-10-05T07:02:20.949Z,14.40
2022-10-05T07:05:09.675Z,14.40
2022-10-05T07:07:47.151Z,14.40
2022-10-05T07:10:32.075Z,14.40
2022-10-05T07:16:45.457Z,14.40
2022-10-05T07:19:38.448Z,14.50
2022-10-05T07:22:39.848Z,14.60
2022-10-05T07:25:20.322Z,14.50
2022-10-05T07:28:12.896Z,14.60
2022-10-05T07:30:48.871Z,14.50
2022-10-05T07:33:29.015Z,14.50
2022-10-05T07:36:43.185Z,14.60
2022-10-05T07:39:21.095Z,14.50
2022-10-05T07:41:59.327Z,14.50
2022-10-05T07:44:52.474Z,14.60
2022-10-05T07:47:33.366Z,14.50
2022-10-05T07:50:18.584Z,14.50
2022-10-05T07:53:06.674Z,14.50
2022-10-05T07:55:39.412Z,14.60
2022-10-05T07:58:30.671Z,14.60
2022-10-05T08:01:11.252Z,14.60
2022-10-05T08:03:53.488Z,14.60
2022-10-05T08:06:26.252Z,14.60
2022-10-05T08:08:57.365Z,14.70
2022-10-05T08:11:58.684Z,14.70
2022-10-05T08:14:34.803Z,14.80
2022-10-05T08:17:14.693Z,14.90
2022-10-05T08:19:50.478Z,14.80
2022-10-05T08:22:29.616Z,15.00
2022-10-05T08:25:02.433Z,15.10
2022-10-05T08:27:44.228Z,15.00
2022-10-05T08:30:13.555Z,15.00
2022-10-05T08:32:48.201Z,15.10
2022-10-05T08:35:34.936Z,15.10
2022-10-05T08:38:11.988Z,15.00
2022-10-05T08:41:15.274Z,15.10
2022-10-05T08:44:12.744Z,15.20
2022-10-05T08:47:06.754Z,15.10
2022-10-05T08:49:50.765Z,15.20
2022-10-05T08:52:30.533Z,15.10
2022-10-05T08:55:29.344Z,15.20
2022-10-05T08:58:52.610Z,15.30
2022-10-05T09:01:30.811Z,15.40
2022-10-05T09:04:17.443Z,15.50
2022-10-05T09:06:43.940Z,15.60
2022-10-05T09:09:30.126Z,15.60
2022-10-05T09:12:18.064Z,15.60
2022-10-05T09:15:24.844Z,15.60
2022-10-05T09:18:42.225Z,15.70
2022-10-05T09:21:26.816Z,15.80
2022-10-05T09:24:10.495Z,15.80
2022-10-05T09:27:01.564Z,15.80
2022-10-05T09:30:21.514Z,15.90
2022-10-05T09:33:10.304Z,15.80
2022-10-05T09:36:01.988Z,15.80
2022-10-05T09:38:59.229Z,15.90
2022-10-05T09:41:47.672Z,15.90
2022-10-05T09:44:40.417Z,15.90
2022-10-05T09:47:27.188Z,16.00
2022-10-05T09:50:31.230Z,16.00
2022-10-05T09:53:40.521Z,16.10
2022-10-05T09:56:41.000Z,16.10
2022-10-05T09:59:34.921Z,16.20
2022-10-05T10:02:23.211Z,16.20
2022-10-05T10:05:05.622Z,16.20
2022-10-05T10:08:13.144Z,16.20
2022-10-05T10:11:01.640Z,16.10
2022-10-05T10:13:43.138Z,16.20
2022-10-05T10:16:43.198Z,16.10
2022-10-05T10:19:18.675Z,16.10
2022-10-05T10:22:03.976Z,16.10
2022-10-05T10:25:10.695Z,16.10
2022-10-05T10:27:52.463Z,16.10
2022-10-05T10:30:43.772Z,16.00
2022-10-05T10:33:39.859Z,16.10
2022-10-05T10:36:07.218Z,16.10
2022-10-05T10:39:04.927Z,16.30
2022-10-05T10:41:49.324Z,16.30
2022-10-05T10:45:04.499Z,16.10
2022-10-05T10:48:10.870Z,16.10
2022-10-05T10:51:02.313Z,15.90
2022-10-05T10:53:53.184Z,16.00
2022-10-05T10:56:22.620Z,15.90
2022-10-05T10:59:25.523Z,16.10
2022-10-05T11:02:38.183Z,16.10
2022-10-05T11:05:30.337Z,16.00
2022-10-05T11:08:20.832Z,15.90
2022-10-05T11:11:17.867Z,15.90
2022-10-05T11:14:24.539Z,16.00
2022-10-05T11:17:17.017Z,15.90
2022-10-05T11:20:31.571Z,15.90
2022-10-05T11:23:15.919Z,16.00
2022-10-05T11:26:05.340Z,16.00
2022-10-05T11:28:53.043Z,15.90
2022-10-05T11:31:40.794Z,15.90
2022-10-05T11:34:20.698Z,15.90
2022-10-05T11:37:16.200Z,15.90
2022-10-05T11:40:00.977Z,15.80
2022-10-05T11:42:57.488Z,15.90
2022-10-05T11:45:45.764Z,15.90
2022-10-05T11:48:21.268Z,16.00
2022-10-05T11:50:57.497Z,16.00
2022-10-05T11:53:30.253Z,16.00
2022-10-05T11:56:16.784Z,16.00
2022-10-05T11:59:01.633Z,15.90
2022-10-05T12:01:30.540Z,16.10
2022-10-05T12:04:20.569Z,16.10
2022-10-05T12:07:14.789Z,16.20
2022-10-05T12:10:14.721Z,16.20
2022-10-05T12:13:10.436Z,16.20
2022-10-05T12:15:55.561Z,16.30
2022-10-05T12:18:25.304Z,16.30
2022-10-05T12:20:59.172Z,16.40
2022-10-05T12:23:50.897Z,16.40
2022-10-05T12:26:30.287Z,16.40
2022-10-05T12:29:13.711Z,16.50
2022-10-05T12:31:52.317Z,16.50
2022-10-05T12:34:36.921Z,16.60
2022-10-05T12:37:46.585Z,16.50
2022-10-05T12:40:34.961Z,16.50
2022-10-05T12:43:01.467Z,16.50
2022-10-05T12:45:39.736Z,16.60
2022-10-05T12:48:12.421Z,16.70
2022-10-05T12:50:42.981Z,16.70
2022-10-05T12:53:13.280Z,16.80
2022-10-05T12:55:55.699Z,16.80
2022-10-05T12:58:36.895Z,16.80
2022-10-05T13:01:38.804Z,16.80
2022-10-05T13:04:40.688Z,16.90
2022-10-05T13:07:27.182Z,16.90
2022-10-05T13:10:12.500Z,16.90
2022-10-05T13:12:51.109Z,16.90
2022-10-05T13:15:34.991Z,17.00
2022-10-05T13:18:01.477Z,17.10
2022-10-05T13:20:35.172Z,17.10
2022-10-05T13:23:38.872Z,17.10
2022-10-05T13:26:18.636Z,17.20
2022-10-05T13:28:57.831Z,17.20
2022-10-05T13:31:40.752Z,17.20
2022-10-05T13:34:25.702Z,17.20
2022-10-05T13:37:04.143Z,17.10
2022-10-05T13:39:43.743Z,17.20
2022-10-05T13:42:32.652Z,17.30
2022-10-05T13:45:22.697Z,17.20
2022-10-05T13:48:15.433Z,17.20
2022-10-05T13:50:58.526Z,17.20
2022-10-05T13:53:36.590Z,17.20
2022-10-05T13:56:37.408Z,17.20
2022-10-05T13:59:12.009Z,17.30
2022-10-05T14:01:52.632Z,17.30
2022-10-05T14:04:22.247Z,17.40
2022-10-05T14:06:49.382Z,17.50
2022-10-05T14:09:25.309Z,17.50
2022-10-05T14:12:14.196Z,17.50
2022-10-05T14:14:52.271Z,17.40
2022-10-05T14:17:38.908Z,17.50
2022-10-05T14:20:28.129Z,17.60
2022-10-05T14:22:59.261Z,17.60
2022-10-05T14:25:27.592Z,17.70
2022-10-05T14:28:09.655Z,17.80
2022-10-05T14:30:36.455Z,17.60
2022-10-05T14:33:12.557Z,17.60
2022-10-05T14:35:53.788Z,17.60
2022-10-05T14:38:23.340Z,17.70
2022-10-05T14:41:18.560Z,17.60
2022-10-05T14:44:05.022Z,17.70
2022-10-05T14:46:34.597Z,17.60
2022-10-05T14:49:22.760Z,17.70
2022-10-05T14:51:50.854Z,17.70
2022-10-05T14:54:53.764Z,17.70
2022-10-05T14:57:33.658Z,17.70
2022-10-05T15:00:00.266Z,17.70
2022-10-05T15:02:47.837Z,17.70
2022-10-05T15:05:16.956Z,17.70
2022-10-05T15:07:46.752Z,17.60
2022-10-05T15:10:36.087Z,17.70
2022-10-05T15:13:17.153Z,17.80
2022-10-05T15:15:56.364Z,17.80
2022-10-05T15:18:49.049Z,17.80
2022-10-05T15:21:30.251Z,17.70
2022-10-05T15:24:29.292Z,17.70
2022-10-05T15:27:02.073Z,17.70
2022-10-05T15:29:54.775Z,17.80
2022-10-05T15:32:31.140Z,17.80
2022-10-05T15:35:36.813Z,17.70
2022-10-05T15:38:20.821Z,17.80
2022-10-05T15:40:58.651Z,17.80
2022-10-05T15:43:31.920Z,17.90
2022-10-05T15:46:19.474Z,17.80
2022-10-05T15:49:08.222Z,17.80
2022-10-05T15:51:37.776Z,17.80
2022-10-05T15:54:40.586Z,17.80
2022-10-05T15:57:29.562Z,17.80
2022-10-05T16:00:05.913Z,17.80
2022-10-05T16:02:55.336Z,17.80
2022-10-05T16:05:53.857Z,17.90
2022-10-05T16:08:59.381Z,17.90
2022-10-05T16:11:50.896Z,17.80
2022-10-05T16:14:44.575Z,17.80
2022-10-05T16:17:47.909Z,17.80
2022-10-05T16:20:38.515Z,17.90
2022-10-05T16:23:34.155Z,17.90
2022-10-05T16:26:32.541Z,18.00
2022-10-05T16:29:28.027Z,17.90
2022-10-05T16:32:05.736Z,17.90
2022-10-05T16:34:54.111Z,17.90
2022-10-05T16:37:52.263Z,17.90
2022-10-05T16:40:29.991Z,17.90
2022-10-05T16:43:49.455Z,17.70
2022-10-05T16:46:35.034Z,17.70
2022-10-05T16:49:38.474Z,17.80
2022-10-05T16:52:10.185Z,17.90
2022-10-05T16:54:48.726Z,17.80
2022-10-05T16:57:35.181Z,17.80
2022-10-05T17:00:04.533Z,17.70
2022-10-05T17:03:11.286Z,17.70
2022-10-05T17:06:05.865Z,17.70
2022-10-05T17:09:10.499Z,17.70
2022-10-05T17:12:03.780Z,17.70
2022-10-05T17:14:58.050Z,17.70
2022-10-05T17:18:09.550Z,17.60
2022-10-05T17:20:43.167Z,17.60
2022-10-05T17:23:37.532Z,17.60
2022-10-05T17:26:16.549Z,17.60
2022-10-05T17:28:52.362Z,17.50
2022-10-05T17:31:21.993Z,17.50
2022-10-05T17:34:10.363Z,17.50
2022-10-05T17:36:48.076Z,17.40
2022-10-05T17:39:23.436Z,17.40
2022-10-05T17:41:50.058Z,17.40
2022-10-05T17:44:19.648Z,17.40
2022-10-05T17:46:51.825Z,17.50
2022-10-05T17:49:32.676Z,17.40
2022-10-05T17:55:27.578Z,17.30
2022-10-05T17:57:58.596Z,17.40
2022-10-05T18:00:32.739Z,17.40
2022-10-05T18:02:59.424Z,17.30
2022-10-05T18:05:29.911Z,17.30
2022-10-05T18:08:12.469Z,17.30
2022-10-05T18:11:11.694Z,17.20
2022-10-05T18:13:49.849Z,17.20
2022-10-05T18:16:56.036Z,17.20
2022-10-05T18:19:23.129Z,17.10
2022-10-05T18:22:23.723Z,17.10
2022-10-05T18:25:10.079Z,17.00
2022-10-05T18:27:50.893Z,17.10
2022-10-05T18:30:25.881Z,17.00
2022-10-05T18:33:22.044Z,17.10
2022-10-05T18:36:05.385Z,17.10
2022-10-05T18:39:13.635Z,17.00
2022-10-05T18:41:50.288Z,17.00
2022-10-05T18:44:48.329Z,17.00
2022-10-05T18:47:39.299Z,17.10
2022-10-05T18:50:14.349Z,17.00
2022-10-05T18:53:08.712Z,17.00
2022-10-05T18:55:39.231Z,17.00
2022-10-05T18:58:21.039Z,17.00
2022-10-05T19:01:16.821Z,17.10
2022-10-05T19:04:09.345Z,17.10
2022-10-05T19:07:04.766Z,17.20
2022-10-05T19:10:05.210Z,17.20
2022-10-05T19:12:44.638Z,17.10
2022-10-05T19:15:19.205Z,17.10
2022-10-05T19:18:13.369Z,17.20
2022-10-05T19:20:53.978Z,17.10
2022-10-05T19:23:37.443Z,17.20
2022-10-05T19:26:14.806Z,17.10
2022-10-05T19:29:07.194Z,17.10
2022-10-05T19:31:43.588Z,17.10
2022-10-05T19:34:33.080Z,17.10
2022-10-05T19:37:19.296Z,17.10
2022-10-05T19:40:09.684Z,17.10
2022-10-05T19:43:11.551Z,17.10
2022-10-05T19:45:54.348Z,17.10
2022-10-05T19:48:42.976Z,17.20
2022-10-05T19:51:25.144Z,17.20
2022-10-05T19:53:55.930Z,17.30
2022-10-05T19:56:25.465Z,17.30
2022-10-05T19:58:58.320Z,17.20
2022-10-05T20:01:40.246Z,17.30
2022-10-05T20:04:07.516Z,17.30
2022-10-05T20:06:34.291Z,17.30
2022-10-05T20:09:18.869Z,17.30
2022-10-05T20:11:52.661Z,17.40
2022-10-05T20:14:28.137Z,17.40
2022-10-05T20:17:36.321Z,17.40
2022-10-05T20:20:33.850Z,17.40
2022-10-05T20:23:23.788Z,17.40
2022-10-05T20:26:09.978Z,17.50
2022-10-05T20:28:36.735Z,17.50
2022-10-05T20:31:05.441Z,17.50
2022-10-05T20:33:34.305Z,17.50
2022-10-05T20:36:03.443Z,17.50
2022-10-05T20:38:31.505Z,17.50
2022-10-05T20:40:59.482Z,17.50
2022-10-05T20:43:26.090Z,17.50
2022-10-05T20:45:53.692Z,17.50
2022-10-05T20:48:20.253Z,17.50
2022-10-05T20:50:47.301Z,17.50
2022-10-05T20:53:14.092Z,17.50
2022-10-05T20:55:40.665Z,17.50
2022-10-05T20:58:08.852Z,17.50
2022-10-05T21:00:59.158Z,17.60
2022-10-05T21:03:26.255Z,17.50
2022-10-05T21:05:52.786Z,17.50
2022-10-05T21:08:19.637Z,17.50
2022-10-05T21:10:46.147Z,17.50
2022-10-05T21:13:12.887Z,17.50
2022-10-05T21:15:39.392Z,17.50
2022-10-05T21:18:05.987Z,17.50
2022-10-05T21:20:33.006Z,17.50
2022-10-05T21:22:59.540Z,17.50
2022-10-05T21:25:26.298Z,17.40
2022-10-05T21:27:54.079Z,17.50
2022-10-05T21:30:21.223Z,17.50
2022-10-05T21:32:47.789Z,17.50
2022-10-05T21:35:14.701Z,17.50
2022-10-05T21:37:41.716Z,17.50
2022-10-05T21:40:08.731Z,17.40
2022-10-05T21:42:35.261Z,17.30
2022-10-05T21:45:01.775Z,17.40
2022-10-05T21:47:28.508Z,17.40
2022-10-05T21:49:55.154Z,17.30
2022-10-05T21:52:22.016Z,17.30
2022-10-05T21:54:48.840Z,17.30
2022-10-05T21:57:15.780Z,17.20
2022-10-05T21:59:43.056Z,17.20
2022-10-05T22:02:09.595Z,17.20
2022-10-05T22:04:36.235Z,17.20
2022-10-05T22:07:13.869Z,17.30
2022-10-05T22:09:40.441Z,17.30
2022-10-05T22:12:07.019Z,17.30
2022-10-05T22:14:33.571Z,17.30
2022-10-05T22:17:00.591Z,17.40
2022-10-05T22:19:27.180Z,17.30
2022-10-05T22:21:53.735Z,17.30
2022-10-05T22:24:21.318Z,17.30
2022-10-05T22:26:49.109Z,17.40
2022-10-05T22:29:17.707Z,17.40
2022-10-05T22:31:48.684Z,17.40
2022-10-05T22:34:16.393Z,17.40
2022-10-05T22:36:43.025Z,17.40
2022-10-05T22:39:09.611Z,17.40
2022-10-05T22:41:36.145Z,17.40
2022-10-05T22:44:02.796Z,17.40
2022-10-05T22:46:29.398Z,17.30
2022-10-05T22:48:55.954Z,17.20
2022-10-05T22:51:22.536Z,17.00
2022-10-05T22:53:49.084Z,16.90
2022-10-05T22:56:15.992Z,16.80
2022-10-05T22:58:43.560Z,16.70
2022-10-05T23:01:15.891Z,16.60
2022-10-05T23:03:42.750Z,16.50
2022-10-05T23:06:12.632Z,16.40
2022-10-05T23:08:40.003Z,16.30
2022-10-05T23:11:18.399Z,16.30
2022-10-05T23:13:45.118Z,16.20
2022-10-05T23:16:12.904Z,16.30
2022-10-05T23:18:40.294Z,16.20
2022-10-05T23:21:08.507Z,16.20
2022-10-05T23:23:39.336Z,16.10
2022-10-05T23:26:08.324Z,16.10
2022-10-05T23:28:35.114Z,16.10
2022-10-05T23:31:04.149Z,16.10
2022-10-05T23:33:30.939Z,16.10
2022-10-05T23:36:03.007Z,16.20
2022-10-05T23:38:30.351Z,16.00
2022-10-05T23:41:00.868Z,16.00
2022-10-05T23:43:28.049Z,16.00
2022-10-05T23:45:56.094Z,16.00
2022-10-05T23:48:22.996Z,16.00
2022-10-05T23:50:50.393Z,15.90
2022-10-05T23:53:17.696Z,15.90
2022-10-05T23:55:44.312Z,15.90
2022-10-05T23:58:11.627Z,15.80
